This is the latest recevied weather packets stored in our database for station/object LU8FJH-13. If no packets are shown the sender has not sent any weather packets the latest 10 day(s).
| Time | Temp. | Humidity | Pressure | Rain* | Wind** | Luminosity | Snow |
|---|---|---|---|---|---|---|---|
| 1777536771 | 12.78° C | 68% | 1013.7 hPa | 0 mm | - | - | - |
| 1777536231 | 12.22° C | 68% | 1013.8 hPa | 0 mm | - | - | - |
| 1777535691 | 12.22° C | 70% | 1013.9 hPa | 0 mm | - | - | - |
| 1777535151 | 12.22° C | 72% | 1013.8 hPa | 0 mm | - | - | - |
| 1777534611 | 11.67° C | 75% | 1013.9 hPa | 0 mm | - | - | - |
| 1777534071 | 11.11° C | 75% | 1014.1 hPa | 0 mm | - | - | - |
| 1777533531 | 11.11° C | 75% | 1013.9 hPa | 0 mm | - | - | - |
| 1777532991 | 11.67° C | 74% | 1014.1 hPa | 0 mm | - | - | - |
| 1777532451 | 11.67° C | 75% | 1014 hPa | 0 mm | - | - | - |
| 1777531911 | 12.22° C | 74% | 1014.2 hPa | 0 mm | - | - | - |
| 1777531371 | 12.22° C | 75% | 1014.2 hPa | 0 mm | - | - | - |
| 1777530831 | 11.67° C | 77% | 1014 hPa | 0 mm | - | - | - |
| 1777530291 | 11.67° C | 78% | 1014.2 hPa | 0 mm | - | - | - |
| 1777529751 | 11.67° C | 79% | 1014.4 hPa | 0 mm | - | - | - |
| 1777529211 | 11.67° C | 79% | 1014.6 hPa | 0 mm | - | - | - |
| 1777528671 | 11.67° C | 79% | 1014.6 hPa | 0 mm | - | - | - |
| 1777528131 | 11.67° C | 78% | 1014.7 hPa | 0 mm | - | - | - |
| 1777527591 | 11.67° C | 79% | 1014.6 hPa | 0 mm | - | - | - |
| 1777527051 | 11.67° C | 78% | 1014.7 hPa | 0 mm | - | - | - |
| 1777526511 | 12.22° C | 76% | 1014.6 hPa | 0 mm | - | - | - |
| 1777525971 | 12.22° C | 76% | 1014.7 hPa | 0 mm | - | - | - |
| 1777525431 | 12.22° C | 75% | 1014.8 hPa | 0 mm | - | - | - |
| 1777524891 | 12.22° C | 75% | 1014.8 hPa | 0 mm | - | - | - |
| 1777524351 | 12.78° C | 74% | 1014.7 hPa | 0 mm | - | - | - |
| 1777523811 | 12.78° C | 74% | 1014.7 hPa | 0 mm | - | - | - |
* Rain latest hour (hover to see other rain measurements)
** Current wind speed in m/s (hover to see current wind gust speed)